Time;durP1;ratioP1;P1;durP2;ratioP2;P2;SDS_P1;SDS_P2;PMS_P1;PMS_P2;Temp;Humidity;BMP_temperature;BMP_pressure;BME280_temperature;BME280_humidity;BME280_pressure;Samples;Min_cycle;Max_cycle;Signal;HPM_P1;HPM_P2
2021/05/19 00:00:43;;;;;;;0.87;0.40;;;12.00;99.90;;;;;;6195008;28;20230;-70
2021/05/19 00:03:45;;;;;;;1.13;0.20;;;12.00;99.90;;;;;;6214776;28;20244;-70
2021/05/19 00:06:47;;;;;;;1.70;0.43;;;11.90;99.90;;;;;;6211326;28;20699;-70
2021/05/19 00:09:49;;;;;;;0.97;0.40;;;11.80;99.90;;;;;;6207860;28;20230;-70
2021/05/19 00:12:52;;;;;;;0.37;0.20;;;11.70;99.90;;;;;;6210002;28;20620;-70
2021/05/19 00:15:54;;;;;;;1.10;0.40;;;11.60;99.90;;;;;;6193936;28;20295;-70
2021/05/19 00:18:57;;;;;;;0.73;0.30;;;11.60;99.90;;;;;;6168679;28;20229;-70
2021/05/19 00:21:59;;;;;;;0.33;0.30;;;11.50;99.90;;;;;;6190172;28;20240;-70
2021/05/19 00:25:01;;;;;;;0.80;0.30;;;11.40;99.90;;;;;;6209236;28;20243;-70
2021/05/19 00:28:04;;;;;;;1.60;0.50;;;11.40;99.90;;;;;;6209874;28;20306;-70
2021/05/19 00:31:06;;;;;;;0.77;0.30;;;11.30;99.90;;;;;;6192104;28;20725;-70
2021/05/19 00:34:13;;;;;;;0.47;0.30;;;11.30;99.90;;;;;;6196729;28;20250;-70
2021/05/19 00:37:16;;;;;;;1.60;0.43;;;11.20;99.90;;;;;;6214244;28;20642;-70
2021/05/19 00:40:18;;;;;;;2.20;0.30;;;11.20;99.90;;;;;;6218998;28;20224;-70
2021/05/19 00:43:22;;;;;;;0.83;0.40;;;11.20;99.90;;;;;;6214015;28;20248;-70
2021/05/19 00:46:24;;;;;;;0.40;0.40;;;11.20;99.90;;;;;;6212517;28;20728;-70
2021/05/19 00:49:26;;;;;;;1.53;0.27;;;11.10;99.90;;;;;;6216186;28;20236;-70
2021/05/19 00:52:28;;;;;;;2.20;0.50;;;11.00;99.90;;;;;;6215271;28;20231;-70
2021/05/19 00:55:31;;;;;;;0.97;0.40;;;10.90;99.90;;;;;;6196962;28;20228;-69
2021/05/19 00:58:34;;;;;;;2.33;0.67;;;10.90;99.90;;;;;;6197286;28;20726;-69
2021/05/19 01:01:37;;;;;;;0.30;0.30;;;10.80;99.90;;;;;;6177150;28;20271;-69
2021/05/19 01:04:43;;;;;;;0.37;0.37;;;10.70;99.90;;;;;;6183850;28;20307;-70
2021/05/19 01:11:19;;;;;;;2.20;0.40;;;10.60;99.90;;;;;;6185253;28;20218;-70
2021/05/19 01:14:21;;;;;;;0.70;0.40;;;10.60;99.90;;;;;;6184840;28;20233;-70
2021/05/19 01:17:23;;;;;;;0.30;0.30;;;10.50;99.90;;;;;;6168403;28;20235;-69
2021/05/19 01:20:25;;;;;;;1.67;0.80;;;10.50;99.90;;;;;;6184338;28;20230;-69
2021/05/19 01:23:30;;;;;;;1.53;0.40;;;10.40;99.90;;;;;;6201070;28;20232;-69
2021/05/19 01:26:33;;;;;;;1.57;0.30;;;10.40;99.90;;;;;;6192780;28;20242;-69
2021/05/19 01:29:35;;;;;;;0.97;0.40;;;10.30;99.90;;;;;;6208999;28;20240;-69
2021/05/19 01:32:37;;;;;;;0.30;0.30;;;10.30;99.90;;;;;;6191999;28;20246;-69
2021/05/19 01:35:40;;;;;;;0.40;0.40;;;10.30;99.90;;;;;;6190832;28;20232;-69
2021/05/19 01:38:44;;;;;;;0.30;0.30;;;10.30;99.90;;;;;;6210006;28;20234;-70
2021/05/19 01:41:49;;;;;;;1.83;0.50;;;10.20;99.90;;;;;;6209745;28;20228;-70
2021/05/19 01:44:54;;;;;;;1.97;0.50;;;10.20;99.90;;;;;;6207834;28;20358;-70
2021/05/19 01:48:09;;;;;;;1.07;0.40;;;10.10;99.90;;;;;;6209465;28;20228;-70
2021/05/19 01:51:11;;;;;;;0.23;0.23;;;10.10;99.90;;;;;;6210032;28;20222;-70
2021/05/19 01:54:14;;;;;;;1.83;0.40;;;10.10;99.90;;;;;;6208878;28;20232;-69
2021/05/19 01:57:16;;;;;;;1.07;0.30;;;10.10;99.90;;;;;;6192930;28;20206;-69
2021/05/19 02:00:21;;;;;;;0.80;0.50;;;10.10;99.90;;;;;;6209989;28;20206;-70
2021/05/19 02:03:23;;;;;;;0.30;0.30;;;10.10;99.90;;;;;;6209563;28;20234;-69
2021/05/19 02:06:59;;;;;;;2.00;0.63;;;10.10;99.90;;;;;;6202587;28;20271;-70
2021/05/19 02:10:12;;;;;;;0.63;0.63;;;10.20;99.90;;;;;;6192531;28;20233;-70
2021/05/19 02:13:16;;;;;;;0.47;0.47;;;10.30;99.90;;;;;;6209790;28;20238;-70
2021/05/19 02:16:19;;;;;;;1.63;0.70;;;10.40;99.90;;;;;;6192667;28;20658;-69
2021/05/19 02:19:24;;;;;;;0.57;0.50;;;10.50;99.90;;;;;;6208376;28;20232;-70
2021/05/19 02:22:31;;;;;;;0.93;0.50;;;10.60;99.90;;;;;;6193071;28;20237;-70
2021/05/19 02:25:33;;;;;;;1.70;0.87;;;10.70;99.90;;;;;;6210331;28;20625;-70
2021/05/19 02:28:37;;;;;;;0.43;0.43;;;10.80;99.90;;;;;;6205911;28;20239;-70
2021/05/19 02:31:40;;;;;;;2.37;0.57;;;10.80;99.90;;;;;;6186228;28;20341;-70
2021/05/19 02:34:43;;;;;;;0.97;0.67;;;10.80;99.90;;;;;;6184036;28;20229;-70
2021/05/19 02:37:45;;;;;;;0.90;0.60;;;10.80;99.90;;;;;;6187850;28;20229;-70
2021/05/19 02:40:48;;;;;;;1.73;0.40;;;10.70;99.90;;;;;;6187285;28;20713;-70
2021/05/19 02:43:51;;;;;;;0.77;0.60;;;10.70;99.90;;;;;;6203235;28;20229;-70
2021/05/19 02:46:53;;;;;;;0.47;0.47;;;10.70;99.90;;;;;;6187146;28;20236;-70
2021/05/19 02:49:55;;;;;;;0.47;0.33;;;10.70;99.90;;;;;;6184610;28;20225;-70
2021/05/19 02:52:57;;;;;;;2.33;0.70;;;10.60;99.90;;;;;;6188980;28;20239;-70
2021/05/19 02:56:00;;;;;;;0.50;0.40;;;10.60;99.90;;;;;;6184216;28;20320;-70
2021/05/19 02:59:03;;;;;;;1.17;0.40;;;10.60;99.90;;;;;;6189022;28;20232;-70
2021/05/19 03:02:05;;;;;;;1.00;0.50;;;10.50;99.90;;;;;;6185919;28;20473;-70
2021/05/19 03:05:09;;;;;;;0.57;0.43;;;10.50;99.90;;;;;;6191357;28;20221;-70
2021/05/19 03:08:11;;;;;;;0.57;0.37;;;10.50;99.90;;;;;;6191467;28;20324;-70
2021/05/19 03:11:13;;;;;;;0.77;0.60;;;10.40;99.90;;;;;;6188848;28;20233;-70
2021/05/19 03:14:15;;;;;;;1.67;0.40;;;10.40;99.90;;;;;;6182832;28;20707;-70
2021/05/19 03:17:17;;;;;;;2.27;0.67;;;10.40;99.90;;;;;;6188363;28;20302;-70
2021/05/19 03:20:19;;;;;;;0.70;0.60;;;10.40;99.90;;;;;;6185471;28;20236;-70
2021/05/19 03:23:21;;;;;;;1.43;0.67;;;10.30;99.90;;;;;;6200972;28;20251;-70
2021/05/19 03:26:23;;;;;;;0.77;0.50;;;10.40;99.90;;;;;;6185473;28;20364;-70
2021/05/19 03:29:26;;;;;;;0.47;0.40;;;10.40;99.90;;;;;;6189764;28;20227;-70
2021/05/19 03:32:28;;;;;;;1.10;0.60;;;10.40;99.90;;;;;;6186850;28;20229;-70
2021/05/19 03:35:30;;;;;;;1.93;0.70;;;10.40;99.90;;;;;;6187348;28;20267;-70
2021/05/19 03:38:33;;;;;;;0.97;0.60;;;10.40;99.90;;;;;;6187789;28;20328;-70
2021/05/19 03:41:36;;;;;;;0.87;0.43;;;10.40;99.90;;;;;;6201793;28;20221;-70
2021/05/19 03:44:38;;;;;;;0.57;0.40;;;10.40;99.90;;;;;;6188209;28;20663;-70
2021/05/19 03:47:40;;;;;;;1.43;0.50;;;10.40;99.90;;;;;;6184526;28;20244;-70
2021/05/19 03:50:43;;;;;;;2.03;0.60;;;10.50;99.90;;;;;;6184040;28;20232;-70
2021/05/19 03:53:45;;;;;;;0.50;0.50;;;10.40;99.90;;;;;;6189455;28;20238;-70
2021/05/19 03:56:50;;;;;;;1.17;0.70;;;10.50;99.90;;;;;;6188481;28;20253;-70
2021/05/19 03:59:52;;;;;;;1.67;0.50;;;10.50;99.90;;;;;;6184079;28;20229;-70
2021/05/19 04:02:54;;;;;;;1.13;0.70;;;10.50;99.90;;;;;;6189309;28;20233;-70
2021/05/19 04:05:56;;;;;;;1.20;0.70;;;10.50;99.90;;;;;;6186243;28;20323;-70
2021/05/19 04:08:58;;;;;;;0.70;0.70;;;10.50;99.90;;;;;;6190493;28;20245;-70
2021/05/19 04:12:00;;;;;;;0.70;0.50;;;10.50;99.90;;;;;;6193727;28;20367;-70
2021/05/19 04:15:03;;;;;;;0.97;0.87;;;10.60;99.90;;;;;;6204227;28;20224;-70
2021/05/19 04:18:05;;;;;;;1.03;0.70;;;10.60;99.90;;;;;;6189744;28;20220;-70
2021/05/19 04:21:10;;;;;;;1.70;0.70;;;10.60;99.90;;;;;;6190635;28;20217;-70
2021/05/19 04:24:12;;;;;;;0.80;0.70;;;10.70;99.90;;;;;;6190436;28;20624;-70
2021/05/19 04:27:14;;;;;;;1.37;0.90;;;10.70;99.90;;;;;;6193472;28;20208;-70
2021/05/19 04:30:17;;;;;;;0.90;0.70;;;10.70;99.90;;;;;;6193158;28;20211;-70
2021/05/19 04:33:21;;;;;;;2.67;0.90;;;10.80;99.90;;;;;;6211692;28;20347;-70
2021/05/19 04:36:24;;;;;;;7.53;1.10;;;10.90;99.90;;;;;;6215980;28;20252;-70
2021/05/19 04:39:26;;;;;;;1.53;0.93;;;11.00;99.90;;;;;;6213557;28;20221;-70
2021/05/19 04:42:28;;;;;;;0.83;0.70;;;11.00;99.90;;;;;;6216666;28;20236;-70
2021/05/19 04:45:30;;;;;;;2.13;0.87;;;11.10;99.90;;;;;;6200860;28;20232;-70
2021/05/19 04:48:32;;;;;;;1.90;0.70;;;11.20;99.90;;;;;;6196728;28;20238;-70
2021/05/19 04:51:34;;;;;;;1.63;0.80;;;11.30;99.90;;;;;;6197699;28;20701;-70
2021/05/19 04:54:36;;;;;;;1.27;0.73;;;11.40;99.90;;;;;;6216268;28;20359;-70
2021/05/19 04:57:38;;;;;;;2.43;0.90;;;11.40;99.90;;;;;;6196442;28;20220;-70
2021/05/19 05:00:40;;;;;;;2.23;1.17;;;11.40;99.90;;;;;;6199669;28;20226;-70
2021/05/19 05:03:42;;;;;;;1.23;0.63;;;11.40;99.90;;;;;;6193092;28;20239;-70
2021/05/19 05:06:44;;;;;;;0.60;0.50;;;11.40;99.90;;;;;;6209671;28;20302;-70
2021/05/19 05:09:47;;;;;;;2.60;0.80;;;11.40;99.90;;;;;;6211773;28;20724;-70
2021/05/19 05:12:50;;;;;;;0.80;0.80;;;11.40;99.90;;;;;;6212608;28;20454;-69
2021/05/19 05:15:52;;;;;;;3.20;0.70;;;11.40;99.90;;;;;;6213566;28;20224;-70
2021/05/19 05:18:54;;;;;;;0.93;0.47;;;11.50;99.90;;;;;;6212869;28;20597;-70
2021/05/19 05:21:56;;;;;;;0.80;0.70;;;11.50;99.90;;;;;;6212632;28;20275;-70
2021/05/19 05:25:02;;;;;;;2.67;0.87;;;11.50;99.90;;;;;;6214378;28;20236;-70
2021/05/19 05:28:04;;;;;;;0.83;0.60;;;11.60;99.90;;;;;;6211468;28;20228;-70
2021/05/19 05:31:06;;;;;;;1.17;0.60;;;11.60;99.90;;;;;;6209769;28;20228;-70
2021/05/19 05:34:08;;;;;;;1.30;0.90;;;11.60;99.90;;;;;;6210898;28;20224;-70
2021/05/19 05:37:10;;;;;;;1.20;0.63;;;11.70;99.90;;;;;;6210601;28;20224;-70
2021/05/19 05:40:13;;;;;;;1.37;0.60;;;11.70;99.90;;;;;;6210699;28;20278;-70
2021/05/19 05:43:15;;;;;;;1.47;0.50;;;11.80;99.90;;;;;;6184168;28;20645;-70
2021/05/19 05:46:17;;;;;;;1.07;0.60;;;11.90;99.90;;;;;;6185536;28;20238;-70
2021/05/19 05:49:19;;;;;;;1.73;0.53;;;12.10;99.90;;;;;;6186031;28;20536;-70
2021/05/19 05:52:21;;;;;;;0.97;0.60;;;12.20;99.90;;;;;;6154493;28;20234;-70
2021/05/19 05:55:23;;;;;;;0.40;0.40;;;12.20;99.90;;;;;;6186218;28;20337;-70
2021/05/19 05:58:25;;;;;;;0.83;0.40;;;12.40;99.90;;;;;;6168011;28;20244;-70
2021/05/19 06:01:27;;;;;;;24.93;2.83;;;12.50;99.90;;;;;;6183753;28;20236;-70
2021/05/19 06:04:30;;;;;;;8.90;1.27;;;12.60;99.90;;;;;;6184608;28;20609;-70
2021/05/19 06:07:32;;;;;;;0.70;0.60;;;12.70;99.90;;;;;;6185912;28;20717;-70
2021/05/19 06:10:35;;;;;;;0.80;0.77;;;12.80;99.90;;;;;;6184842;28;20227;-70
2021/05/19 06:13:37;;;;;;;0.97;0.60;;;12.90;99.90;;;;;;6186095;28;20291;-70
2021/05/19 06:16:39;;;;;;;3.20;0.80;;;13.00;99.90;;;;;;6184197;28;20371;-70
2021/05/19 06:19:41;;;;;;;2.30;0.60;;;13.00;99.90;;;;;;6183993;28;20270;-70
2021/05/19 06:22:43;;;;;;;1.03;0.80;;;13.10;99.90;;;;;;6179094;28;20306;-70
2021/05/19 06:25:46;;;;;;;1.67;0.70;;;13.10;99.90;;;;;;6207951;28;20226;-70
2021/05/19 06:28:48;;;;;;;1.17;0.70;;;13.10;99.90;;;;;;6208697;28;20232;-70
2021/05/19 06:31:50;;;;;;;1.53;0.80;;;13.20;99.90;;;;;;6208447;28;20233;-70
2021/05/19 06:34:53;;;;;;;0.53;0.50;;;13.30;99.90;;;;;;6192116;28;20233;-70
2021/05/19 06:37:55;;;;;;;1.90;0.87;;;13.20;99.90;;;;;;6208371;28;20228;-71
2021/05/19 06:40:57;;;;;;;1.17;0.80;;;13.20;99.90;;;;;;6207586;28;20233;-70
2021/05/19 06:43:59;;;;;;;0.67;0.53;;;13.20;99.90;;;;;;6210236;28;20733;-70
2021/05/19 06:47:01;;;;;;;2.23;0.90;;;13.30;99.90;;;;;;6209920;28;20373;-70
2021/05/19 06:50:03;;;;;;;1.00;0.80;;;13.30;99.90;;;;;;6209164;28;20223;-70
2021/05/19 06:53:05;;;;;;;1.63;0.87;;;13.30;99.90;;;;;;6190785;28;20221;-70
2021/05/19 06:56:08;;;;;;;0.60;0.50;;;13.30;99.90;;;;;;6189754;28;20241;-70
2021/05/19 06:59:15;;;;;;;1.23;0.80;;;13.40;99.90;;;;;;6192306;28;20235;-69
2021/05/19 07:02:17;;;;;;;1.17;0.90;;;13.40;99.90;;;;;;6204099;28;20230;-70
2021/05/19 07:05:20;;;;;;;0.80;0.67;;;13.40;99.90;;;;;;6208031;28;20233;-69
2021/05/19 07:08:22;;;;;;;1.23;0.60;;;13.40;99.90;;;;;;6225532;28;20318;-70
2021/05/19 07:11:24;;;;;;;1.50;0.70;;;13.50;99.90;;;;;;6201531;28;20236;-69
2021/05/19 07:14:27;;;;;;;1.60;0.80;;;13.50;99.90;;;;;;6185742;28;20615;-70
2021/05/19 07:17:29;;;;;;;2.03;0.80;;;13.60;99.90;;;;;;6167893;28;20243;-70
2021/05/19 07:20:31;;;;;;;1.30;0.97;;;13.80;99.90;;;;;;6168560;28;20220;-70
2021/05/19 07:23:33;;;;;;;0.83;0.70;;;13.90;99.90;;;;;;6218776;28;20226;-70
2021/05/19 07:26:39;;;;;;;1.23;0.93;;;14.00;99.90;;;;;;6191493;28;20264;-69
2021/05/19 07:29:41;;;;;;;1.00;0.90;;;14.10;99.90;;;;;;6192047;28;20235;-69
2021/05/19 07:32:43;;;;;;;2.07;0.67;;;14.20;99.90;;;;;;6210111;28;20254;-70
2021/05/19 07:35:46;;;;;;;1.20;0.80;;;14.30;99.90;;;;;;6210239;28;20229;-70
2021/05/19 07:38:48;;;;;;;4.27;0.90;;;14.40;99.90;;;;;;6209992;28;20231;-70
2021/05/19 07:41:50;;;;;;;1.93;0.97;;;14.50;99.90;;;;;;6180375;28;20375;-70
2021/05/19 07:44:52;;;;;;;2.37;1.03;;;14.50;99.70;;;;;;6169632;28;20242;-70
2021/05/19 07:47:54;;;;;;;2.03;0.80;;;14.70;99.90;;;;;;6189720;28;20236;-70
2021/05/19 07:50:54;;;;;;;1.40;0.73;;;14.80;99.50;;;;;;6173800;28;20578;-70
2021/05/19 07:53:56;;;;;;;1.47;1.00;;;14.90;99.20;;;;;;6210831;28;20235;-70
2021/05/19 07:57:03;;;;;;;1.83;1.00;;;15.00;98.70;;;;;;6213694;28;20715;-69
2021/05/19 08:00:14;;;;;;;0.80;0.80;;;15.20;99.30;;;;;;6212607;28;20294;-70
2021/05/19 08:03:16;;;;;;;2.37;0.90;;;15.50;99.10;;;;;;6213623;28;20244;-69
2021/05/19 08:06:20;;;;;;;0.70;0.70;;;15.70;98.50;;;;;;6195344;28;20196;-70
2021/05/19 08:09:21;;;;;;;2.37;0.87;;;15.90;97.20;;;;;;6196257;28;21672;-70
2021/05/19 08:12:22;;;;;;;1.23;0.97;;;16.00;97.40;;;;;;6214194;28;20303;-70
2021/05/19 08:15:23;;;;;;;2.37;1.23;;;15.90;96.00;;;;;;6213823;28;20222;-70
2021/05/19 08:18:24;;;;;;;3.60;1.00;;;15.80;95.40;;;;;;6174947;28;20216;-69
2021/05/19 08:21:26;;;;;;;4.00;1.20;;;15.70;96.80;;;;;;6188073;28;20590;-69
2021/05/19 08:24:28;;;;;;;2.00;1.00;;;15.70;97.20;;;;;;6195278;28;20228;-69
2021/05/19 08:27:30;;;;;;;2.83;1.20;;;15.80;96.50;;;;;;6194649;28;20236;-70
2021/05/19 08:30:32;;;;;;;2.10;1.57;;;15.80;96.10;;;;;;6194962;28;20619;-70
2021/05/19 08:33:34;;;;;;;2.73;1.20;;;15.80;96.20;;;;;;6212542;28;20221;-70
2021/05/19 08:36:37;;;;;;;1.80;1.30;;;15.70;96.20;;;;;;6195170;28;20255;-70
2021/05/19 08:39:39;;;;;;;1.73;1.47;;;15.70;96.40;;;;;;6193680;28;20232;-70
2021/05/19 08:42:41;;;;;;;2.83;1.30;;;15.80;96.70;;;;;;6212893;28;20712;-69
2021/05/19 08:45:45;;;;;;;1.67;1.13;;;15.80;96.40;;;;;;6211211;28;20228;-70
2021/05/19 08:49:00;;;;;;;1.73;1.17;;;15.90;96.40;;;;;;6212065;28;20305;-70
2021/05/19 08:52:03;;;;;;;1.10;1.00;;;15.70;96.20;;;;;;6211308;28;20605;-69
2021/05/19 08:55:13;;;;;;;1.17;1.10;;;15.70;96.90;;;;;;6194988;28;20228;-70
2021/05/19 08:58:15;;;;;;;2.33;1.40;;;15.70;96.90;;;;;;6212011;28;20715;-70
2021/05/19 09:01:20;;;;;;;2.07;1.50;;;15.70;96.30;;;;;;6181195;28;20221;-70
2021/05/19 09:04:24;;;;;;;1.77;1.30;;;15.80;96.50;;;;;;6168852;28;20245;-70
2021/05/19 09:07:27;;;;;;;1.33;1.23;;;15.90;96.50;;;;;;6168575;28;20456;-70
2021/05/19 09:10:29;;;;;;;3.63;1.33;;;16.00;96.50;;;;;;6187339;28;20233;-70
2021/05/19 09:13:45;;;;;;;2.97;1.70;;;15.90;96.00;;;;;;6186395;28;20595;-70
2021/05/19 09:16:47;;;;;;;3.10;1.40;;;15.80;96.50;;;;;;6169441;28;20268;-70
2021/05/19 09:20:02;;;;;;;2.27;1.43;;;15.70;96.70;;;;;;6187335;28;20236;-70
2021/05/19 09:23:05;;;;;;;2.83;1.70;;;15.90;97.10;;;;;;6201698;28;20240;-69
2021/05/19 09:26:12;;;;;;;2.50;1.60;;;16.00;96.90;;;;;;6211881;28;20228;-70
2021/05/19 09:29:20;;;;;;;1.93;1.57;;;16.20;96.00;;;;;;6193809;28;20230;-70
2021/05/19 09:32:22;;;;;;;3.63;1.60;;;16.20;95.60;;;;;;6212200;28;20240;-70
2021/05/19 09:35:24;;;;;;;3.17;1.83;;;16.20;95.10;;;;;;6195396;28;20700;-70
2021/05/19 09:38:30;;;;;;;2.10;1.33;;;16.10;95.80;;;;;;6193882;28;20588;-70
2021/05/19 09:41:34;;;;;;;2.43;1.70;;;16.00;96.40;;;;;;6202598;28;20232;-70
2021/05/19 09:44:37;;;;;;;2.33;1.93;;;16.00;96.20;;;;;;6170076;28;20235;-70
2021/05/19 09:47:43;;;;;;;2.37;1.40;;;16.10;96.10;;;;;;6187533;28;20232;-70
2021/05/19 09:50:46;;;;;;;2.03;1.80;;;16.20;96.30;;;;;;6187609;28;20240;-70
2021/05/19 09:53:48;;;;;;;2.00;1.70;;;16.20;95.70;;;;;;6205098;28;20268;-70
2021/05/19 09:56:55;;;;;;;1.90;1.57;;;16.30;96.10;;;;;;6210367;28;20235;-70
2021/05/19 09:59:59;;;;;;;4.03;2.00;;;16.50;95.50;;;;;;6210424;28;20240;-69
2021/05/19 10:03:03;;;;;;;2.50;1.43;;;16.50;94.50;;;;;;6210886;28;20315;-70
2021/05/19 10:09:28;;;;;;;1.70;1.40;;;16.50;93.90;;;;;;6167251;28;20237;-70
2021/05/19 10:12:31;;;;;;;1.80;1.27;;;16.50;94.20;;;;;;6168076;28;20221;-69
2021/05/19 10:15:35;;;;;;;4.10;1.40;;;16.50;93.70;;;;;;6170760;28;20247;-70
2021/05/19 10:18:44;;;;;;;1.60;1.50;;;16.50;94.20;;;;;;6185417;28;20236;-70
2021/05/19 10:21:46;;;;;;;2.57;1.57;;;16.50;93.90;;;;;;6185175;28;20232;-70
2021/05/19 10:25:17;;;;;;;1.73;1.07;;;16.60;94.30;;;;;;6184152;28;20236;-70
2021/05/19 10:28:36;;;;;;;0.83;0.73;;;16.70;91.60;;;;;;6184358;28;20710;-70
2021/05/19 10:31:41;;;;;;;0.90;0.90;;;16.80;91.90;;;;;;6172733;28;20725;-70
2021/05/19 10:34:45;;;;;;;2.57;1.00;;;16.90;91.10;;;;;;6186097;28;20673;-70
2021/05/19 10:37:49;;;;;;;1.20;1.10;;;17.00;90.40;;;;;;6183336;28;20813;-70
2021/05/19 10:40:56;;;;;;;1.40;1.10;;;17.10;91.00;;;;;;6182665;28;20229;-70
2021/05/19 10:44:06;;;;;;;1.00;0.87;;;17.20;91.40;;;;;;6181457;28;20233;-70
2021/05/19 10:47:10;;;;;;;1.40;1.20;;;17.40;90.50;;;;;;6183289;28;20221;-70
2021/05/19 10:50:34;;;;;;;1.33;1.13;;;17.50;89.60;;;;;;6183504;28;20232;-70
2021/05/19 10:57:38;;;;;;;1.07;1.07;;;17.80;90.20;;;;;;6182153;28;20586;-70
2021/05/19 11:00:44;;;;;;;1.30;1.20;;;17.80;88.40;;;;;;6184361;28;20227;-70
2021/05/19 11:04:13;;;;;;;1.60;1.40;;;17.90;88.60;;;;;;6186204;28;20644;-70
2021/05/19 11:07:15;;;;;;;1.30;1.20;;;18.00;86.40;;;;;;6180906;28;20233;-70
2021/05/19 11:10:26;;;;;;;1.73;1.20;;;18.00;87.10;;;;;;6182115;28;20229;-70
2021/05/19 11:14:29;;;;;;;2.23;1.47;;;18.10;84.60;;;;;;6183262;28;20225;-70
2021/05/19 11:20:43;;;;;;;1.53;1.00;;;18.10;85.90;;;;;;6183042;28;20233;-70
2021/05/19 11:24:12;;;;;;;1.50;1.40;;;18.20;84.50;;;;;;6182643;28;20712;-70
2021/05/19 11:27:22;;;;;;;1.90;1.33;;;18.20;85.00;;;;;;6182065;28;20235;-70
2021/05/19 11:30:26;;;;;;;1.93;1.30;;;18.10;83.30;;;;;;6201801;28;20228;-70
2021/05/19 11:33:29;;;;;;;1.60;1.50;;;18.10;86.20;;;;;;6189791;28;20229;-70
2021/05/19 11:36:41;;;;;;;1.50;1.30;;;18.10;83.50;;;;;;6206513;28;20833;-70
2021/05/19 11:39:53;;;;;;;2.77;1.67;;;18.10;83.70;;;;;;6207731;28;20327;-70
2021/05/19 11:43:15;;;;;;;1.63;1.53;;;18.10;83.80;;;;;;6204793;28;20250;-70
2021/05/19 11:46:17;;;;;;;1.83;1.17;;;18.00;84.20;;;;;;6206700;28;20224;-70
2021/05/19 11:49:19;;;;;;;4.10;1.23;;;18.00;86.50;;;;;;6188359;28;20232;-70
2021/05/19 11:52:42;;;;;;;1.40;1.13;;;18.10;85.20;;;;;;6207337;28;20259;-70
2021/05/19 11:55:51;;;;;;;2.13;1.20;;;18.10;84.80;;;;;;6206940;28;20566;-71
2021/05/19 11:58:53;;;;;;;1.23;1.13;;;18.10;82.40;;;;;;6206890;28;20686;-70
2021/05/19 12:02:06;;;;;;;1.20;1.10;;;18.10;81.70;;;;;;6188643;28;20351;-71
2021/05/19 12:05:08;;;;;;;1.93;1.00;;;18.10;82.50;;;;;;6188231;28;20240;-70
2021/05/19 12:08:13;;;;;;;2.13;1.10;;;18.10;82.60;;;;;;6189102;28;20229;-70
2021/05/19 12:11:22;;;;;;;1.03;0.90;;;18.20;78.40;;;;;;6188673;28;20306;-70
2021/05/19 12:14:24;;;;;;;1.50;0.90;;;18.10;78.70;;;;;;6192063;28;20236;-70
2021/05/19 12:17:26;;;;;;;2.23;1.23;;;18.10;79.30;;;;;;6208626;28;20235;-70
2021/05/19 12:20:28;;;;;;;1.20;1.10;;;18.00;80.80;;;;;;6189715;28;20232;-70
2021/05/19 12:23:30;;;;;;;2.63;1.27;;;18.10;82.90;;;;;;6190361;28;20608;-70
2021/05/19 12:26:34;;;;;;;0.83;0.83;;;18.20;80.70;;;;;;6206050;28;20221;-69
2021/05/19 12:29:40;;;;;;;1.93;1.07;;;18.20;80.50;;;;;;6209580;28;20307;-70
2021/05/19 12:32:54;;;;;;;1.30;0.80;;;18.20;80.50;;;;;;6217334;28;20662;-70
2021/05/19 12:35:56;;;;;;;1.47;1.00;;;18.30;81.20;;;;;;6214052;28;20279;-69
2021/05/19 12:39:05;;;;;;;0.50;0.50;;;18.10;78.00;;;;;;6193699;28;20243;-70
2021/05/19 12:42:15;;;;;;;2.93;0.70;;;18.00;79.40;;;;;;6193413;28;20216;-70
2021/05/19 12:45:24;;;;;;;0.67;0.60;;;18.10;77.80;;;;;;6193967;28;20314;-70
2021/05/19 12:48:26;;;;;;;1.00;0.90;;;18.00;77.70;;;;;;6211092;28;20224;-70
2021/05/19 12:51:29;;;;;;;1.43;0.60;;;17.90;77.10;;;;;;6210174;28;20225;-70
2021/05/19 12:54:33;;;;;;;0.83;0.70;;;17.90;75.60;;;;;;6194108;28;20224;-70
2021/05/19 12:57:35;;;;;;;2.73;0.40;;;17.70;76.10;;;;;;6193368;28;20305;-70
2021/05/19 13:00:57;;;;;;;0.50;0.50;;;17.70;77.60;;;;;;6203504;28;20227;-70
2021/05/19 13:04:01;;;;;;;0.60;0.60;;;17.60;77.10;;;;;;6167764;28;20236;-70
2021/05/19 13:07:03;;;;;;;0.50;0.50;;;17.60;76.40;;;;;;6185883;28;20219;-70
2021/05/19 13:10:25;;;;;;;1.17;0.57;;;17.60;77.70;;;;;;6166903;28;20221;-70
2021/05/19 13:13:46;;;;;;;0.60;0.60;;;17.90;78.70;;;;;;6168421;28;20328;-71
2021/05/19 13:16:49;;;;;;;1.10;1.00;;;17.90;78.30;;;;;;6185484;28;20236;-70
2021/05/19 13:19:58;;;;;;;0.83;0.80;;;17.70;78.30;;;;;;6185522;28;20323;-70
2021/05/19 13:23:04;;;;;;;1.80;0.80;;;17.60;80.20;;;;;;6199934;28;20235;-69
2021/05/19 13:26:07;;;;;;;1.80;0.80;;;17.50;80.50;;;;;;6209475;28;20236;-70
2021/05/19 13:29:14;;;;;;;0.73;0.63;;;17.40;81.50;;;;;;6192914;28;20374;-70
2021/05/19 13:32:22;;;;;;;1.90;1.03;;;17.20;82.50;;;;;;6224756;28;20598;-70
2021/05/19 13:39:00;;;;;;;0.70;0.70;;;16.90;86.40;;;;;;6209194;28;20323;-70
2021/05/19 13:42:04;;;;;;;0.90;0.70;;;16.80;88.80;;;;;;6193971;28;20231;-70
2021/05/19 13:45:06;;;;;;;1.70;0.57;;;16.60;90.00;;;;;;6184011;28;20606;-70
2021/05/19 13:48:08;;;;;;;1.00;0.60;;;16.60;91.70;;;;;;6199019;28;20249;-70
2021/05/19 13:51:11;;;;;;;2.77;0.80;;;16.50;93.60;;;;;;6166548;28;20244;-70
2021/05/19 13:54:14;;;;;;;0.70;0.53;;;16.40;93.40;;;;;;6190116;28;20220;-70
2021/05/19 13:57:16;;;;;;;0.50;0.50;;;16.30;94.80;;;;;;6192547;28;20201;-70
2021/05/19 14:00:18;;;;;;;1.30;0.90;;;16.30;97.00;;;;;;6211598;28;20677;-70
2021/05/19 14:03:26;;;;;;;0.50;0.50;;;16.40;98.80;;;;;;6211627;28;21595;-71
2021/05/19 14:06:28;;;;;;;1.10;0.80;;;16.40;99.30;;;;;;6209900;28;20221;-71
2021/05/19 14:09:30;;;;;;;0.60;0.60;;;16.50;99.90;;;;;;6190738;28;20219;-71
2021/05/19 14:12:36;;;;;;;0.70;0.70;;;16.60;99.90;;;;;;6209912;28;20303;-71
2021/05/19 14:19:59;;;;;;;0.67;0.67;;;16.70;97.20;;;;;;6168975;28;20365;-71
2021/05/19 14:28:58;;;;;;;0.60;0.60;;;16.50;97.50;;;;;;6191273;28;20567;-71
2021/05/19 14:32:00;;;;;;;1.13;0.80;;;16.40;95.90;;;;;;6208631;28;20232;-71
2021/05/19 14:35:08;;;;;;;1.10;0.80;;;16.40;96.50;;;;;;6193228;28;20239;-70
2021/05/19 15:00:49;;;;;;;0.87;0.80;;;15.20;99.90;;;;;;6200436;28;20228;-71
2021/05/19 15:03:52;;;;;;;1.37;0.90;;;15.00;99.90;;;;;;6164746;28;20225;-69
2021/05/19 15:06:54;;;;;;;2.27;1.07;;;14.60;99.90;;;;;;6186323;28;20247;-69
2021/05/19 15:09:56;;;;;;;1.60;1.30;;;14.40;99.90;;;;;;6169131;28;20270;-69
2021/05/19 15:12:58;;;;;;;0.87;0.60;;;14.00;99.90;;;;;;6182066;28;20231;-69
2021/05/19 15:16:00;;;;;;;1.73;1.20;;;13.80;99.90;;;;;;6180978;28;20230;-69
2021/05/19 15:19:04;;;;;;;2.70;1.20;;;13.70;99.90;;;;;;6164003;28;20224;-69
2021/05/19 15:22:06;;;;;;;3.77;0.80;;;13.50;99.90;;;;;;6170820;28;20241;-69
2021/05/19 15:25:09;;;;;;;0.70;0.67;;;13.40;99.90;;;;;;6189125;28;20240;-68
2021/05/19 15:28:11;;;;;;;0.83;0.80;;;13.20;99.90;;;;;;6205647;28;20630;-69
2021/05/19 15:31:13;;;;;;;0.90;0.90;;;13.20;99.90;;;;;;6205713;28;20607;-69
2021/05/19 15:34:16;;;;;;;1.10;1.00;;;13.40;99.90;;;;;;6206304;28;20231;-69
2021/05/19 15:37:18;;;;;;;1.10;0.90;;;13.80;99.90;;;;;;6189318;28;20584;-69
2021/05/19 15:40:23;;;;;;;1.10;0.80;;;14.30;99.90;;;;;;6205112;28;20226;-69
2021/05/19 15:43:39;;;;;;;0.87;0.80;;;14.80;99.90;;;;;;6178690;28;20226;-69
2021/05/19 15:46:41;;;;;;;0.80;0.80;;;15.10;99.90;;;;;;6181056;28;20232;-69
2021/05/19 15:49:44;;;;;;;0.93;0.77;;;15.00;99.90;;;;;;6180553;28;20231;-70
2021/05/19 15:52:46;;;;;;;1.07;0.97;;;14.70;99.90;;;;;;6164353;28;20238;-69
2021/05/19 15:55:48;;;;;;;2.70;1.20;;;14.40;99.90;;;;;;6179683;28;20598;-69
2021/05/19 15:58:51;;;;;;;1.20;1.10;;;14.10;99.90;;;;;;6164801;28;20234;-69
2021/05/19 16:01:52;;;;;;;1.13;1.00;;;13.80;99.90;;;;;;6182357;28;20327;-69
2021/05/19 16:04:54;;;;;;;1.30;1.20;;;13.60;99.90;;;;;;6185384;28;20330;-69
2021/05/19 16:07:57;;;;;;;1.20;1.10;;;13.40;99.90;;;;;;6185634;28;20247;-69
2021/05/19 16:10:59;;;;;;;1.93;1.00;;;13.20;99.90;;;;;;6200832;28;20236;-70
2021/05/19 16:14:02;;;;;;;1.20;1.10;;;13.00;99.90;;;;;;6186022;28;20231;-69
2021/05/19 16:17:07;;;;;;;1.37;1.20;;;12.90;99.90;;;;;;6200087;28;20333;-69
2021/05/19 16:20:10;;;;;;;1.90;1.03;;;12.90;99.90;;;;;;6185365;28;20298;-69
2021/05/19 16:23:12;;;;;;;1.43;1.33;;;13.00;99.90;;;;;;6182938;28;20238;-69
2021/05/19 16:26:14;;;;;;;1.77;1.40;;;13.10;99.90;;;;;;6192067;28;20747;-69
2021/05/19 16:34:09;;;;;;;1.60;1.50;;;13.30;99.90;;;;;;6187022;28;20246;-69
2021/05/19 16:37:11;;;;;;;1.60;1.50;;;13.40;99.90;;;;;;6192372;28;20338;-69
2021/05/19 16:40:13;;;;;;;1.23;1.10;;;13.30;99.90;;;;;;6210108;28;20595;-69
2021/05/19 16:43:15;;;;;;;1.60;1.30;;;13.30;99.90;;;;;;6192015;28;20284;-69
2021/05/19 16:46:17;;;;;;;1.73;1.40;;;13.30;99.90;;;;;;6209532;28;20234;-69
2021/05/19 16:49:22;;;;;;;1.63;1.53;;;13.30;99.90;;;;;;6210145;28;20233;-69
2021/05/19 16:52:23;;;;;;;1.73;1.63;;;13.20;99.90;;;;;;6192441;28;20239;-70
2021/05/19 16:55:26;;;;;;;1.57;1.40;;;13.10;99.90;;;;;;6211573;28;20347;-70